Time;durP1;ratioP1;P1;durP2;ratioP2;P2;SDS_P1;SDS_P2;PMS_P1;PMS_P2;Temp;Humidity;BMP_temperature;BMP_pressure;BME280_temperature;BME280_humidity;BME280_pressure;Samples;Min_cycle;Max_cycle;Signal;HPM_P1;HPM_P2
2022/05/03 00:00:18;;;;;;;2.80;1.20;;;20.40;47.80;;;;;;5133130;27;20462;-74
2022/05/03 00:03:12;;;;;;;2.45;1.20;;;20.40;47.90;;;;;;5092198;28;20075;-74
2022/05/03 00:06:07;;;;;;;1.05;0.90;;;20.30;47.90;;;;;;5092407;28;20118;-74
2022/05/03 00:08:43;;;;;;;1.88;1.40;;;20.30;47.90;;;;;;5098674;28;20043;-73
2022/05/03 00:11:46;;;;;;;1.77;1.30;;;20.30;47.90;;;;;;5092962;28;20058;-74
2022/05/03 00:14:17;;;;;;;1.60;1.25;;;20.30;47.90;;;;;;5096885;28;20089;-74
2022/05/03 00:16:45;;;;;;;1.80;1.15;;;20.30;47.90;;;;;;5093048;28;20058;-74
2022/05/03 00:19:11;;;;;;;2.10;1.10;;;20.20;47.80;;;;;;5094112;28;20047;-74
2022/05/03 00:21:37;;;;;;;2.50;1.27;;;20.30;47.90;;;;;;5093986;28;20040;-73
2022/05/03 00:24:05;;;;;;;3.15;1.30;;;20.20;47.90;;;;;;5093655;28;20040;-75
2022/05/03 00:26:31;;;;;;;1.80;1.15;;;20.20;47.90;;;;;;5094740;28;20075;-74
2022/05/03 00:28:58;;;;;;;1.85;1.33;;;20.20;47.90;;;;;;5093361;28;20084;-74
2022/05/03 00:31:25;;;;;;;2.20;1.52;;;20.20;47.90;;;;;;5092067;28;20048;-74
2022/05/03 00:33:54;;;;;;;1.67;1.10;;;20.20;48.00;;;;;;5097804;28;20086;-74
2022/05/03 00:36:19;;;;;;;2.13;1.00;;;20.20;48.00;;;;;;5078939;28;20038;-74
2022/05/03 00:38:45;;;;;;;1.80;1.00;;;20.20;48.00;;;;;;5096410;28;20039;-73
2022/05/03 00:41:17;;;;;;;1.65;1.20;;;20.20;48.00;;;;;;5098727;28;20464;-74
2022/05/03 00:43:45;;;;;;;1.95;1.30;;;20.10;47.90;;;;;;5090571;28;20032;-75
2022/05/03 00:46:17;;;;;;;2.08;1.05;;;20.20;48.00;;;;;;5091339;28;20054;-75
2022/05/03 00:49:01;;;;;;;3.72;1.20;;;20.10;47.90;;;;;;5094184;28;20683;-75
2022/05/03 00:51:44;;;;;;;2.40;1.10;;;20.10;48.00;;;;;;5126421;27;20103;-74
2022/05/03 00:54:38;;;;;;;1.73;1.35;;;20.10;48.00;;;;;;5095262;28;20402;-75
2022/05/03 00:57:25;;;;;;;2.53;1.30;;;20.10;47.90;;;;;;5096748;28;20052;-74
2022/05/03 01:00:06;;;;;;;2.15;1.05;;;20.10;48.00;;;;;;5094023;28;20147;-74
2022/05/03 01:02:55;;;;;;;1.52;1.00;;;20.10;48.70;;;;;;5096740;28;20101;-74
2022/05/03 01:05:47;;;;;;;2.45;1.10;;;20.10;48.00;;;;;;5089727;28;20039;-74
2022/05/03 01:08:29;;;;;;;1.50;1.15;;;20.10;48.10;;;;;;5069135;28;20054;-73
2022/05/03 01:11:21;;;;;;;1.20;1.10;;;20.10;48.00;;;;;;5102279;28;20383;-74
2022/05/03 01:13:58;;;;;;;1.60;1.00;;;20.10;48.00;;;;;;5084132;28;20526;-75
2022/05/03 01:16:34;;;;;;;3.05;1.30;;;20.00;48.00;;;;;;5095543;28;20032;-75
2022/05/03 01:19:16;;;;;;;2.50;1.30;;;20.00;48.00;;;;;;5091868;28;20433;-74
2022/05/03 01:21:54;;;;;;;1.70;1.10;;;20.00;48.10;;;;;;5092149;28;20047;-74
2022/05/03 01:24:32;;;;;;;1.30;1.10;;;20.00;48.00;;;;;;5092673;28;20047;-74
2022/05/03 01:27:39;;;;;;;1.85;1.23;;;20.00;48.00;;;;;;5092048;28;21001;-73
2022/05/03 01:30:08;;;;;;;1.20;1.10;;;20.00;48.00;;;;;;5091959;28;20085;-73
2022/05/03 01:32:36;;;;;;;1.75;1.23;;;19.90;48.00;;;;;;5086977;28;20516;-74
2022/05/03 01:35:06;;;;;;;1.08;0.98;;;19.90;48.00;;;;;;5092994;28;20117;-74
2022/05/03 01:38:09;;;;;;;2.00;1.30;;;19.90;48.00;;;;;;5093374;27;20035;-74
2022/05/03 01:40:58;;;;;;;1.55;1.20;;;19.90;47.90;;;;;;5086857;28;20055;-74
2022/05/03 01:43:46;;;;;;;1.90;1.15;;;19.90;48.00;;;;;;5092310;28;20047;-74
2022/05/03 01:46:23;;;;;;;1.20;1.02;;;19.90;48.00;;;;;;5091979;28;20040;-74
2022/05/03 01:52:43;;;;;;;1.20;1.00;;;19.90;48.00;;;;;;5088890;28;20036;-74
2022/05/03 01:55:36;;;;;;;1.20;0.88;;;19.90;48.00;;;;;;5092367;28;20318;-74
2022/05/03 01:58:12;;;;;;;2.05;1.13;;;19.80;48.00;;;;;;5096331;28;20046;-73
2022/05/03 02:00:38;;;;;;;1.45;1.20;;;19.80;48.00;;;;;;5126038;27;20063;-73
2022/05/03 02:03:28;;;;;;;1.48;1.10;;;19.80;48.00;;;;;;5098336;28;20031;-74
2022/05/03 02:06:08;;;;;;;1.60;1.25;;;19.80;48.00;;;;;;5092517;28;20418;-74
2022/05/03 02:09:00;;;;;;;1.02;0.93;;;19.80;48.10;;;;;;5076875;28;20044;-73
2022/05/03 02:12:07;;;;;;;2.13;1.30;;;19.80;48.10;;;;;;5111084;27;20162;-73
2022/05/03 02:14:46;;;;;;;2.80;1.20;;;19.80;48.00;;;;;;5094295;28;20426;-74
2022/05/03 02:17:32;;;;;;;1.30;1.20;;;19.80;48.10;;;;;;5095371;28;20578;-74
2022/05/03 02:20:37;;;;;;;1.38;1.10;;;19.80;48.10;;;;;;5132508;27;20967;-74
2022/05/03 02:23:24;;;;;;;1.77;1.25;;;19.70;48.00;;;;;;5093938;28;20051;-74
2022/05/03 02:26:07;;;;;;;1.58;1.20;;;19.80;48.10;;;;;;5090523;28;20052;-74
2022/05/03 02:28:44;;;;;;;2.38;1.20;;;19.80;48.10;;;;;;5094386;28;20469;-74
2022/05/03 02:31:17;;;;;;;1.67;1.10;;;19.70;48.00;;;;;;5095375;28;20509;-73
2022/05/03 02:33:55;;;;;;;1.10;1.00;;;19.70;48.10;;;;;;5088564;28;20141;-74
2022/05/03 02:36:25;;;;;;;1.10;1.00;;;19.80;48.20;;;;;;5096734;28;20040;-74
2022/05/03 02:39:05;;;;;;;1.25;1.15;;;19.70;48.10;;;;;;5093811;28;20052;-74
2022/05/03 02:41:35;;;;;;;1.27;1.10;;;19.70;48.10;;;;;;5089497;28;20051;-74
2022/05/03 02:44:02;;;;;;;0.95;0.93;;;19.70;48.10;;;;;;5094750;28;20074;-74
2022/05/03 02:46:44;;;;;;;1.10;0.90;;;19.70;48.10;;;;;;5091157;28;20044;-75
2022/05/03 02:49:27;;;;;;;1.75;1.20;;;19.70;48.10;;;;;;5124770;27;20047;-74
2022/05/03 02:52:23;;;;;;;1.80;1.20;;;19.70;48.20;;;;;;5094473;28;20047;-73
2022/05/03 02:55:24;;;;;;;1.48;1.30;;;19.70;48.10;;;;;;5091514;28;20119;-75
2022/05/03 02:58:17;;;;;;;1.20;1.10;;;19.70;48.10;;;;;;5070300;28;20395;-74
2022/05/03 03:03:56;;;;;;;2.17;1.20;;;19.70;48.10;;;;;;5126110;27;20140;-73
2022/05/03 03:06:23;;;;;;;1.33;1.23;;;19.70;48.10;;;;;;5078906;28;20032;-73
2022/05/03 03:08:54;;;;;;;1.40;1.25;;;19.70;48.10;;;;;;5095875;28;20066;-73
2022/05/03 03:11:58;;;;;;;2.17;1.20;;;19.70;48.10;;;;;;5099428;28;20140;-72
2022/05/03 03:14:39;;;;;;;3.15;1.10;;;19.70;48.10;;;;;;5022966;28;20045;-73
2022/05/03 03:17:10;;;;;;;1.65;1.17;;;19.70;48.00;;;;;;5017360;28;20038;-73
2022/05/03 03:20:04;;;;;;;2.05;1.00;;;19.70;48.10;;;;;;5068832;28;20051;-73
2022/05/03 03:22:35;;;;;;;2.10;1.35;;;19.70;48.10;;;;;;5096592;28;20585;-73
2022/05/03 03:25:02;;;;;;;1.15;1.05;;;19.70;48.10;;;;;;5098962;28;20151;-74
2022/05/03 03:27:31;;;;;;;1.33;1.05;;;19.70;48.10;;;;;;5090486;28;20431;-73
2022/05/03 03:29:58;;;;;;;1.55;1.10;;;19.70;48.10;;;;;;5094488;28;20044;-72
2022/05/03 03:32:26;;;;;;;1.20;1.10;;;19.60;48.10;;;;;;5096446;28;21890;-73
2022/05/03 03:34:56;;;;;;;1.33;1.05;;;19.70;48.10;;;;;;5095281;28;20035;-72
2022/05/03 03:37:24;;;;;;;1.30;1.17;;;19.70;48.10;;;;;;5094742;28;20578;-73
2022/05/03 03:39:50;;;;;;;1.20;1.10;;;19.60;48.10;;;;;;5098069;28;20052;-72
2022/05/03 03:42:15;;;;;;;1.73;1.27;;;19.70;48.20;;;;;;5097118;28;20048;-73
2022/05/03 03:44:41;;;;;;;1.58;1.38;;;19.70;48.20;;;;;;5090425;28;20040;-73
2022/05/03 03:47:07;;;;;;;3.63;1.30;;;19.70;48.20;;;;;;5100387;28;20101;-72
2022/05/03 03:49:33;;;;;;;1.40;1.20;;;19.70;48.20;;;;;;5094688;28;20052;-73
2022/05/03 03:51:59;;;;;;;1.17;1.08;;;19.70;48.20;;;;;;5094256;28;20053;-74
2022/05/03 03:54:25;;;;;;;2.15;1.05;;;19.60;48.20;;;;;;5093067;28;20040;-74
2022/05/03 03:56:54;;;;;;;1.25;1.13;;;19.60;48.20;;;;;;5093604;28;20039;-73
2022/05/03 03:59:20;;;;;;;1.63;1.20;;;19.60;48.30;;;;;;5098088;28;20035;-72
2022/05/03 04:01:49;;;;;;;1.65;1.20;;;19.60;48.30;;;;;;5094370;27;20028;-73
2022/05/03 04:04:16;;;;;;;1.20;1.10;;;19.60;48.30;;;;;;5097039;28;20074;-73
2022/05/03 04:06:42;;;;;;;1.17;1.00;;;19.60;48.40;;;;;;5101125;28;20072;-72
2022/05/03 04:09:08;;;;;;;1.10;1.00;;;19.60;48.40;;;;;;5089709;28;20079;-73
2022/05/03 04:11:44;;;;;;;3.70;1.15;;;19.60;48.40;;;;;;5099631;28;20471;-72
2022/05/03 04:14:14;;;;;;;3.28;1.13;;;19.60;48.50;;;;;;5094964;28;20040;-72
2022/05/03 04:16:41;;;;;;;1.65;1.00;;;19.60;48.50;;;;;;5105020;28;20074;-72
2022/05/03 04:19:07;;;;;;;1.15;1.05;;;19.60;48.50;;;;;;5094467;28;20039;-74
2022/05/03 04:21:33;;;;;;;2.60;1.05;;;19.60;48.50;;;;;;5093616;28;20035;-72
2022/05/03 04:23:59;;;;;;;1.58;1.15;;;19.60;48.50;;;;;;5095219;28;20035;-72
2022/05/03 04:26:24;;;;;;;1.65;1.20;;;19.60;48.50;;;;;;5099443;28;20406;-73
2022/05/03 04:28:50;;;;;;;1.60;1.38;;;19.60;48.60;;;;;;5094714;28;20048;-72
2022/05/03 04:31:16;;;;;;;1.20;1.10;;;19.60;48.50;;;;;;5097198;28;20166;-71
2022/05/03 04:33:41;;;;;;;1.83;1.17;;;19.60;48.60;;;;;;5094840;28;20036;-72
2022/05/03 04:36:07;;;;;;;1.42;1.20;;;19.60;48.60;;;;;;5097361;28;20069;-73
2022/05/03 04:38:32;;;;;;;1.88;1.00;;;19.60;48.60;;;;;;5093459;28;20449;-72
2022/05/03 04:41:02;;;;;;;1.40;1.17;;;19.60;48.60;;;;;;5096296;28;20115;-72
2022/05/03 04:43:28;;;;;;;1.10;1.00;;;19.60;48.60;;;;;;5097553;28;20036;-72
2022/05/03 04:45:54;;;;;;;1.50;1.10;;;19.60;48.60;;;;;;5093322;28;20051;-71
2022/05/03 04:48:20;;;;;;;1.52;1.05;;;19.60;48.70;;;;;;5093902;28;20090;-72
2022/05/03 04:50:47;;;;;;;1.23;1.13;;;19.60;49.50;;;;;;5100143;28;20043;-72
2022/05/03 04:53:13;;;;;;;1.10;1.00;;;19.60;48.70;;;;;;5096292;28;20060;-72
2022/05/03 04:55:39;;;;;;;1.67;1.30;;;19.60;48.70;;;;;;5098532;28;20092;-72
2022/05/03 04:58:06;;;;;;;1.17;1.08;;;19.60;48.70;;;;;;5091168;28;20075;-72
2022/05/03 05:00:32;;;;;;;0.93;0.90;;;19.60;48.70;;;;;;5097292;28;20046;-72
2022/05/03 05:02:57;;;;;;;1.33;1.20;;;19.60;48.70;;;;;;5090156;28;20031;-72
2022/05/03 05:05:23;;;;;;;2.30;1.05;;;19.60;48.80;;;;;;5092901;28;20071;-73
2022/05/03 05:07:49;;;;;;;1.90;1.10;;;19.60;48.80;;;;;;5103285;28;20115;-72
2022/05/03 05:10:24;;;;;;;1.42;0.95;;;19.60;48.80;;;;;;5132382;27;20473;-72
2022/05/03 05:12:50;;;;;;;1.85;1.10;;;19.60;48.80;;;;;;5090295;28;20044;-73
2022/05/03 05:15:16;;;;;;;1.70;1.40;;;19.60;48.80;;;;;;5090303;28;20040;-73
2022/05/03 05:17:42;;;;;;;1.23;1.10;;;19.60;48.90;;;;;;5094844;28;20050;-73
2022/05/03 05:20:08;;;;;;;1.77;1.13;;;19.60;48.80;;;;;;5126918;27;20031;-73
2022/05/03 05:22:33;;;;;;;2.25;1.33;;;19.60;48.90;;;;;;5090933;28;20104;-72
2022/05/03 05:24:59;;;;;;;1.48;1.38;;;19.60;48.90;;;;;;5088940;28;20048;-73
2022/05/03 05:27:24;;;;;;;2.50;1.33;;;19.60;48.90;;;;;;5090887;28;20071;-73
2022/05/03 05:29:50;;;;;;;1.35;1.20;;;19.60;48.90;;;;;;5094642;28;20062;-72
2022/05/03 05:32:16;;;;;;;1.25;1.10;;;19.60;48.90;;;;;;5091793;28;20521;-73
2022/05/03 05:34:41;;;;;;;3.55;1.40;;;19.60;48.90;;;;;;5095614;28;20063;-73
2022/05/03 05:37:07;;;;;;;2.38;1.48;;;19.60;48.90;;;;;;5092566;28;20054;-74
2022/05/03 05:39:32;;;;;;;1.85;1.40;;;19.60;49.00;;;;;;5095407;28;20040;-73
2022/05/03 05:41:59;;;;;;;2.47;1.25;;;19.60;49.00;;;;;;5087292;28;20083;-73
2022/05/03 05:44:31;;;;;;;1.77;1.30;;;19.60;48.90;;;;;;5087584;28;20024;-74
2022/05/03 05:46:56;;;;;;;1.58;1.20;;;19.60;48.90;;;;;;5122225;27;20052;-72
2022/05/03 05:49:22;;;;;;;1.60;1.30;;;19.60;48.90;;;;;;5095863;28;20055;-74
2022/05/03 05:51:47;;;;;;;1.80;1.17;;;19.70;49.00;;;;;;5090704;28;20055;-74
2022/05/03 05:54:13;;;;;;;2.13;1.30;;;19.60;48.90;;;;;;5089504;28;20102;-74
2022/05/03 05:56:41;;;;;;;1.92;1.23;;;19.60;48.90;;;;;;5094228;28;20728;-73
2022/05/03 05:59:06;;;;;;;3.17;1.30;;;19.60;48.90;;;;;;5073077;28;20050;-74
2022/05/03 06:01:40;;;;;;;1.75;1.50;;;19.70;49.00;;;;;;5084252;28;20051;-73
2022/05/03 06:04:06;;;;;;;1.48;1.30;;;19.60;49.00;;;;;;5098963;27;20051;-74
2022/05/03 06:06:33;;;;;;;3.35;1.17;;;19.60;49.00;;;;;;5069242;28;20051;-74
2022/05/03 06:08:59;;;;;;;2.42;1.48;;;19.70;49.10;;;;;;5090781;28;20046;-75
2022/05/03 06:11:29;;;;;;;3.08;1.40;;;19.70;49.20;;;;;;5089726;28;20039;-72
2022/05/03 06:13:57;;;;;;;2.35;1.40;;;19.60;49.20;;;;;;5087762;28;20044;-71
2022/05/03 06:16:23;;;;;;;4.78;1.60;;;19.60;49.20;;;;;;5076739;28;20036;-72
2022/05/03 06:18:48;;;;;;;2.15;1.50;;;19.60;49.40;;;;;;5079177;28;20066;-70
2022/05/03 06:21:14;;;;;;;2.55;1.50;;;19.60;49.60;;;;;;5078242;28;20629;-71
2022/05/03 06:23:39;;;;;;;4.60;1.58;;;19.60;50.60;;;;;;5080105;28;20046;-67
2022/05/03 06:26:06;;;;;;;4.80;2.42;;;19.60;50.00;;;;;;5109419;27;20035;-68
2022/05/03 06:28:32;;;;;;;2.45;1.45;;;19.60;50.10;;;;;;5078509;28;20079;-69
2022/05/03 06:30:58;;;;;;;3.33;1.92;;;19.60;50.30;;;;;;5082411;28;20113;-68
2022/05/03 06:33:24;;;;;;;3.00;1.90;;;19.60;50.40;;;;;;5076958;28;20916;-70
2022/05/03 06:35:49;;;;;;;3.40;1.67;;;19.60;50.50;;;;;;5081059;28;20474;-69
2022/05/03 06:38:15;;;;;;;5.18;1.92;;;19.60;50.50;;;;;;5082866;28;20078;-68
2022/05/03 06:40:41;;;;;;;4.32;1.90;;;19.60;50.50;;;;;;5080487;28;20297;-68
2022/05/03 06:43:07;;;;;;;16.38;2.00;;;19.70;50.60;;;;;;5062721;28;20047;-69
2022/05/03 06:45:32;;;;;;;3.28;1.80;;;19.70;50.70;;;;;;5079462;28;20778;-70
2022/05/03 06:48:00;;;;;;;3.13;1.88;;;19.70;50.70;;;;;;5082680;28;20063;-73
2022/05/03 06:50:26;;;;;;;6.00;2.13;;;19.70;50.80;;;;;;5077622;28;20418;-70
2022/05/03 06:52:51;;;;;;;2.42;1.70;;;19.70;50.80;;;;;;5079362;28;20054;-68
2022/05/03 06:55:17;;;;;;;3.17;1.80;;;19.80;50.90;;;;;;5063467;28;20142;-70
2022/05/03 06:57:43;;;;;;;4.05;1.95;;;19.80;50.90;;;;;;5080514;28;20047;-69
2022/05/03 07:00:09;;;;;;;2.10;1.80;;;19.80;50.90;;;;;;5103724;27;20123;-69
2022/05/03 07:02:35;;;;;;;3.00;2.10;;;19.80;50.90;;;;;;5080901;28;20092;-70
2022/05/03 07:05:03;;;;;;;3.58;2.00;;;19.70;50.90;;;;;;5080445;28;20056;-72
2022/05/03 07:07:29;;;;;;;9.88;2.17;;;19.80;50.90;;;;;;5078463;28;20068;-71
2022/05/03 07:09:56;;;;;;;3.53;1.73;;;19.80;50.90;;;;;;5083152;28;20127;-68
2022/05/03 07:12:21;;;;;;;2.65;2.05;;;19.80;50.80;;;;;;5069577;28;20040;-69
2022/05/03 07:14:47;;;;;;;4.53;1.67;;;19.80;50.80;;;;;;5071502;28;20049;-69
2022/05/03 07:22:47;;;;;;;5.30;2.03;;;19.80;50.70;;;;;;5107569;28;20143;-70
2022/05/03 07:25:17;;;;;;;4.72;2.22;;;19.80;50.70;;;;;;5064661;28;20105;-69
2022/05/03 07:27:45;;;;;;;2.65;2.10;;;19.80;50.70;;;;;;5047687;28;20056;-70
2022/05/03 07:30:13;;;;;;;5.28;2.40;;;19.80;50.70;;;;;;5068339;28;20094;-69
2022/05/03 07:32:38;;;;;;;4.10;2.20;;;19.80;50.70;;;;;;5051588;28;20490;-69
2022/05/03 07:35:04;;;;;;;5.22;2.13;;;19.80;50.70;;;;;;5055744;28;20278;-70
2022/05/03 07:37:30;;;;;;;5.57;2.10;;;19.90;50.70;;;;;;5089210;28;20036;-71
2022/05/03 07:39:55;;;;;;;3.00;2.03;;;19.80;50.70;;;;;;5075836;28;20048;-69
2022/05/03 07:42:21;;;;;;;5.32;2.35;;;19.80;50.60;;;;;;5099382;28;20032;-73
2022/05/03 07:44:46;;;;;;;2.63;1.75;;;19.80;50.70;;;;;;5084964;28;20032;-71
2022/05/03 07:47:12;;;;;;;2.80;2.08;;;19.80;50.60;;;;;;5083434;28;20040;-69
2022/05/03 07:49:37;;;;;;;5.38;2.03;;;19.80;50.60;;;;;;5083392;28;20056;-71
2022/05/03 07:52:05;;;;;;;3.25;2.20;;;19.90;50.70;;;;;;5065255;28;20044;-70
2022/05/03 07:54:31;;;;;;;2.22;1.83;;;19.90;50.70;;;;;;5104695;27;20056;-71
2022/05/03 07:56:56;;;;;;;5.13;2.17;;;19.80;50.60;;;;;;5085950;28;20537;-71
2022/05/03 07:59:25;;;;;;;3.30;2.00;;;19.90;50.70;;;;;;5083330;28;20039;-71
2022/05/03 08:01:54;;;;;;;3.15;2.15;;;19.90;50.60;;;;;;5082104;28;20447;-70
2022/05/03 08:04:20;;;;;;;3.17;1.80;;;19.90;50.60;;;;;;5089627;28;20610;-70
2022/05/03 08:06:46;;;;;;;3.30;2.22;;;19.90;50.60;;;;;;5085176;28;20574;-70
2022/05/03 08:09:12;;;;;;;3.42;2.40;;;19.90;50.60;;;;;;5088514;28;20083;-68
2022/05/03 08:11:37;;;;;;;6.45;2.47;;;19.90;50.50;;;;;;5081242;28;20040;-71
2022/05/03 08:14:04;;;;;;;3.25;2.15;;;19.90;50.50;;;;;;5111958;27;20412;-70
2022/05/03 08:16:33;;;;;;;4.03;2.20;;;19.90;50.50;;;;;;5083190;28;20097;-70
2022/05/03 08:18:59;;;;;;;5.72;2.50;;;19.90;50.50;;;;;;5085194;28;20123;-69
2022/05/03 08:21:25;;;;;;;3.78;2.25;;;20.00;50.70;;;;;;5087019;28;20036;-70
2022/05/03 08:23:51;;;;;;;7.95;2.60;;;20.00;50.80;;;;;;5084738;28;20491;-69
2022/05/03 08:26:20;;;;;;;5.53;2.65;;;20.00;50.90;;;;;;5081030;28;20040;-71
2022/05/03 08:28:46;;;;;;;4.68;2.28;;;20.00;51.00;;;;;;5082638;28;20059;-68
2022/05/03 08:31:11;;;;;;;10.65;2.40;;;20.00;51.00;;;;;;5070860;28;20039;-69
2022/05/03 08:33:37;;;;;;;5.25;2.13;;;20.10;51.10;;;;;;5082340;28;20130;-71
2022/05/03 08:36:04;;;;;;;4.40;2.65;;;20.10;51.20;;;;;;5086277;28;20097;-70
2022/05/03 08:43:59;;;;;;;3.85;2.72;;;20.20;51.20;;;;;;5082779;28;20079;-71
2022/05/03 08:46:24;;;;;;;5.93;2.63;;;20.20;51.30;;;;;;5080996;28;21158;-71
2022/05/03 08:48:55;;;;;;;5.90;2.47;;;20.20;52.10;;;;;;5079087;28;20385;-73
2022/05/03 08:51:24;;;;;;;5.03;2.53;;;20.20;51.40;;;;;;5077867;28;20036;-68
2022/05/03 08:53:50;;;;;;;6.40;2.63;;;20.20;51.30;;;;;;5083508;28;20051;-70
2022/05/03 08:56:19;;;;;;;5.45;2.47;;;20.20;51.40;;;;;;5077832;28;20489;-72
2022/05/03 08:58:46;;;;;;;3.10;2.30;;;20.20;51.40;;;;;;5082074;28;20117;-70
2022/05/03 09:01:13;;;;;;;5.35;2.28;;;20.30;51.40;;;;;;5063444;28;20457;-70
2022/05/03 09:03:39;;;;;;;4.65;2.67;;;20.30;51.40;;;;;;5080731;28;20086;-73
2022/05/03 09:06:05;;;;;;;5.80;2.50;;;20.30;51.30;;;;;;5087270;28;20043;-71
2022/05/03 09:08:32;;;;;;;5.22;2.33;;;20.30;51.30;;;;;;5083767;28;20050;-72
2022/05/03 09:10:59;;;;;;;4.80;2.40;;;20.30;51.40;;;;;;5084449;28;20088;-70
2022/05/03 09:13:28;;;;;;;6.40;2.58;;;20.30;51.30;;;;;;5081343;28;20130;-71
2022/05/03 09:16:08;;;;;;;7.28;2.70;;;20.30;50.90;;;;;;5083215;28;20032;-72
2022/05/03 09:18:34;;;;;;;6.28;2.20;;;20.30;50.60;;;;;;5080377;28;20039;-74
2022/05/03 09:23:50;;;;;;;5.28;2.33;;;20.30;50.30;;;;;;5101128;27;20048;-74
2022/05/03 09:26:20;;;;;;;8.63;2.58;;;20.30;50.10;;;;;;5080735;28;20040;-70
2022/05/03 09:28:53;;;;;;;8.00;2.70;;;20.30;49.90;;;;;;5083936;28;20469;-74
2022/05/03 09:31:35;;;;;;;11.13;2.60;;;20.30;49.70;;;;;;5114023;27;20051;-71
2022/05/03 09:34:25;;;;;;;4.63;2.25;;;20.30;49.50;;;;;;5061040;28;20420;-77
2022/05/03 09:37:07;;;;;;;6.38;2.80;;;20.30;49.60;;;;;;5075993;28;20400;-74
2022/05/03 09:39:38;;;;;;;8.48;2.78;;;20.40;49.60;;;;;;5073458;28;20051;-72
2022/05/03 09:42:09;;;;;;;6.55;2.55;;;20.40;49.60;;;;;;5080441;28;20040;-73
2022/05/03 09:44:40;;;;;;;7.95;2.63;;;20.30;49.30;;;;;;5085611;28;20116;-75
2022/05/03 09:47:11;;;;;;;9.18;2.65;;;20.30;49.30;;;;;;5081949;28;20048;-74
2022/05/03 09:49:41;;;;;;;10.75;2.92;;;20.40;49.10;;;;;;5084619;28;20119;-74
2022/05/03 09:52:12;;;;;;;8.50;2.33;;;20.40;49.00;;;;;;5083623;28;20160;-75
2022/05/03 09:54:48;;;;;;;6.03;2.28;;;20.40;48.90;;;;;;5084175;28;20039;-75
2022/05/03 09:57:22;;;;;;;7.88;2.47;;;20.40;48.80;;;;;;5082582;28;20127;-74
2022/05/03 09:59:49;;;;;;;9.02;2.28;;;20.40;48.80;;;;;;5082085;28;20036;-75
2022/05/03 10:02:23;;;;;;;12.48;2.70;;;20.40;48.80;;;;;;5082140;28;20063;-73
2022/05/03 10:04:50;;;;;;;8.55;2.50;;;20.40;48.70;;;;;;5082187;28;20055;-73
2022/05/03 10:07:16;;;;;;;5.32;2.13;;;20.40;48.70;;;;;;5087605;28;20060;-71
2022/05/03 10:09:43;;;;;;;9.63;2.60;;;20.40;48.70;;;;;;5081293;28;20040;-73
2022/05/03 10:12:13;;;;;;;7.73;2.60;;;20.40;48.60;;;;;;5087266;28;20059;-73
2022/05/03 10:14:40;;;;;;;8.30;2.80;;;20.40;48.60;;;;;;5081177;28;20317;-74
2022/05/03 10:22:43;;;;;;;7.45;2.67;;;20.40;48.40;;;;;;5078704;28;20080;-75
2022/05/03 10:25:08;;;;;;;6.80;2.10;;;20.40;48.40;;;;;;5084074;28;20056;-74
2022/05/03 10:27:54;;;;;;;7.53;2.10;;;20.40;48.30;;;;;;5085726;28;20133;-75
2022/05/03 10:30:22;;;;;;;6.47;2.20;;;20.50;48.00;;;;;;5081567;28;20125;-69
2022/05/03 10:33:28;;;;;;;8.32;2.30;;;20.50;48.10;;;;;;5088783;28;20040;-71
2022/05/03 10:35:54;;;;;;;8.23;2.20;;;20.50;47.90;;;;;;5076386;28;20169;-74
2022/05/03 10:38:39;;;;;;;7.25;2.10;;;20.50;47.90;;;;;;5083015;28;20938;-72
2022/05/03 10:41:05;;;;;;;7.63;2.55;;;20.50;47.60;;;;;;5083707;28;20039;-73
2022/05/03 10:43:34;;;;;;;6.78;2.50;;;20.60;47.80;;;;;;5082145;28;20086;-74
2022/05/03 10:46:09;;;;;;;7.13;2.47;;;20.60;47.80;;;;;;5083989;28;20735;-74
2022/05/03 10:48:36;;;;;;;5.40;2.38;;;20.70;47.90;;;;;;5082119;28;20147;-74
2022/05/03 10:51:05;;;;;;;6.97;2.42;;;20.70;47.90;;;;;;5105855;28;20055;-72
2022/05/03 10:53:36;;;;;;;5.82;1.88;;;20.70;47.90;;;;;;5106739;27;20094;-75
2022/05/03 10:56:16;;;;;;;7.32;2.15;;;20.80;48.00;;;;;;5106947;27;20503;-72
2022/05/03 10:59:14;;;;;;;4.47;2.05;;;20.80;47.90;;;;;;5104974;28;20412;-74
2022/05/03 11:02:09;;;;;;;6.93;2.47;;;20.80;47.80;;;;;;5062461;28;20044;-75
2022/05/03 11:04:51;;;;;;;5.47;2.20;;;20.90;47.90;;;;;;5062194;28;20098;-74
2022/05/03 11:07:25;;;;;;;6.97;2.33;;;20.90;47.90;;;;;;5074687;28;21354;-74
2022/05/03 11:09:50;;;;;;;9.05;2.42;;;20.90;47.80;;;;;;5070992;28;20052;-75
2022/05/03 11:12:16;;;;;;;7.88;2.75;;;20.90;47.80;;;;;;5074774;28;20047;-74
2022/05/03 11:14:43;;;;;;;5.70;2.28;;;20.90;47.80;;;;;;5074402;28;20035;-72
2022/05/03 11:17:09;;;;;;;5.78;2.17;;;20.90;47.80;;;;;;5102380;28;20084;-72
2022/05/03 11:19:36;;;;;;;6.22;2.40;;;20.90;47.80;;;;;;5075180;28;20512;-71
2022/05/03 11:22:15;;;;;;;4.15;2.42;;;21.00;47.80;;;;;;5059132;28;20036;-73
2022/05/03 11:24:43;;;;;;;5.43;2.58;;;21.00;47.80;;;;;;5077399;28;20051;-69
2022/05/03 11:27:10;;;;;;;7.35;3.10;;;21.00;47.80;;;;;;5075099;28;20059;-70
2022/05/03 11:29:43;;;;;;;6.80;2.92;;;21.00;47.80;;;;;;5063906;28;20059;-74
2022/05/03 11:32:10;;;;;;;4.70;2.25;;;21.10;47.90;;;;;;5072402;28;20040;-75
2022/05/03 11:34:38;;;;;;;5.60;2.40;;;21.10;47.80;;;;;;5059995;28;20131;-72
2022/05/03 11:37:04;;;;;;;;;;;21.10;47.70;;;;;;5099604;27;20050;-70
2022/05/03 11:39:30;;;;;;;6.35;2.35;;;21.20;47.80;;;;;;5086552;28;19920;-74
2022/05/03 11:41:56;;;;;;;7.63;2.30;;;21.20;47.70;;;;;;5089203;28;20476;-73
2022/05/03 11:44:23;;;;;;;7.80;2.47;;;21.20;47.60;;;;;;5083040;28;20218;-75
2022/05/03 11:46:49;;;;;;;7.63;2.85;;;21.20;47.40;;;;;;5087906;28;20044;-75
2022/05/03 11:49:16;;;;;;;7.05;2.58;;;21.30;47.30;;;;;;5083478;28;20039;-75
2022/05/03 11:57:34;;;;;;;7.13;2.50;;;21.40;47.10;;;;;;5084094;28;20134;-73
2022/05/03 12:00:01;;;;;;;5.25;2.20;;;21.40;47.70;;;;;;5087904;28;20065;-71
2022/05/03 12:02:34;;;;;;;5.80;2.35;;;21.50;46.90;;;;;;5085680;28;20163;-75
2022/05/03 12:05:17;;;;;;;7.68;2.70;;;21.50;46.80;;;;;;5085818;28;20143;-72
2022/05/03 12:07:55;;;;;;;7.28;2.78;;;21.50;46.60;;;;;;5084987;28;20039;-74
2022/05/03 12:10:27;;;;;;;5.35;2.50;;;21.50;46.60;;;;;;5088584;28;20040;-75
2022/05/03 12:13:08;;;;;;;5.18;2.28;;;21.50;46.70;;;;;;5081603;28;20035;-71
2022/05/03 12:15:36;;;;;;;3.95;2.20;;;21.50;46.60;;;;;;5104426;27;20043;-73
2022/05/03 12:18:11;;;;;;;8.23;2.45;;;21.50;46.70;;;;;;5078574;28;20039;-73
2022/05/03 12:20:47;;;;;;;4.53;2.15;;;21.60;46.70;;;;;;5088273;28;20044;-75
2022/05/03 12:23:14;;;;;;;7.38;2.35;;;21.60;46.70;;;;;;5081154;28;20052;-73
2022/05/03 12:25:45;;;;;;;3.95;2.30;;;21.70;46.70;;;;;;5088451;28;20090;-69
2022/05/03 12:28:10;;;;;;;5.35;2.33;;;21.70;46.60;;;;;;5064196;28;20048;-72
2022/05/03 12:30:36;;;;;;;6.95;2.20;;;21.80;46.60;;;;;;5084166;28;20702;-70
2022/05/03 12:33:07;;;;;;;5.38;2.40;;;21.80;46.40;;;;;;5086559;28;20039;-68
2022/05/03 12:35:37;;;;;;;6.45;2.33;;;21.80;46.10;;;;;;5084517;28;20040;-68
2022/05/03 12:38:16;;;;;;;8.30;2.60;;;21.90;46.10;;;;;;5087278;28;20043;-70
2022/05/03 12:40:43;;;;;;;;;;;21.90;45.90;;;;;;5080734;28;20055;-75
2022/05/03 12:43:14;;;;;;;8.07;2.50;;;22.00;46.20;;;;;;5087405;28;20391;-78
2022/05/03 12:45:40;;;;;;;5.65;2.47;;;22.00;46.00;;;;;;5083312;28;20511;-76
2022/05/03 12:48:06;;;;;;;4.82;2.20;;;22.10;45.80;;;;;;5079776;28;20047;-75
2022/05/03 12:50:32;;;;;;;4.93;2.33;;;22.20;45.70;;;;;;5084989;28;20044;-75
2022/05/03 12:52:58;;;;;;;4.93;2.25;;;22.20;45.50;;;;;;5088341;28;20521;-75
2022/05/03 12:55:23;;;;;;;5.10;2.17;;;22.30;45.40;;;;;;5086906;28;20048;-73
2022/05/03 13:00:36;;;;;;;5.20;2.28;;;22.30;45.30;;;;;;5111283;27;20048;-74
2022/05/03 13:03:10;;;;;;;4.25;2.10;;;22.30;45.30;;;;;;5070628;28;20162;-74
2022/05/03 13:05:35;;;;;;;5.50;2.30;;;22.40;45.40;;;;;;5084826;28;20036;-71
2022/05/03 13:08:01;;;;;;;5.30;2.35;;;22.40;45.40;;;;;;5083226;28;20043;-71
2022/05/03 13:10:27;;;;;;;5.30;2.20;;;22.30;45.30;;;;;;5082310;28;21255;-74
2022/05/03 13:12:52;;;;;;;6.28;2.40;;;22.40;45.20;;;;;;5082628;28;20055;-69
2022/05/03 13:15:18;;;;;;;4.50;2.10;;;22.50;45.20;;;;;;5079152;28;20043;-74
2022/05/03 13:17:43;;;;;;;7.20;2.33;;;22.40;45.20;;;;;;5083029;28;20424;-77
2022/05/03 13:20:09;;;;;;;5.88;2.20;;;22.30;45.10;;;;;;5080330;28;20044;-69
2022/05/03 13:22:35;;;;;;;3.70;2.10;;;22.30;45.20;;;;;;5085852;28;20050;-78
2022/05/03 13:25:00;;;;;;;5.25;2.50;;;22.30;45.30;;;;;;5089437;28;20048;-72
2022/05/03 13:27:26;;;;;;;5.97;2.25;;;22.30;45.30;;;;;;5082369;28;20056;-70
2022/05/03 13:29:51;;;;;;;5.88;2.20;;;22.30;45.40;;;;;;5081885;28;20569;-73
2022/05/03 13:32:17;;;;;;;5.50;2.58;;;22.20;45.40;;;;;;5079823;28;20860;-71
2022/05/03 13:34:43;;;;;;;5.30;2.08;;;22.20;45.50;;;;;;5083728;28;20455;-78
2022/05/03 13:42:37;;;;;;;8.32;2.30;;;22.10;45.60;;;;;;5082060;28;20036;-71
2022/05/03 13:45:03;;;;;;;7.95;2.08;;;22.00;45.60;;;;;;5110454;27;20047;-75
2022/05/03 13:47:30;;;;;;;6.45;2.35;;;22.10;45.50;;;;;;5085753;28;20044;-75